createdAt,value
2024-05-09T00:01:04.115Z,99444.44
2024-05-09T00:04:08.611Z,99436.44
2024-05-09T00:07:12.992Z,99436.09
2024-05-09T00:10:25.352Z,99434.09
2024-05-09T00:13:39.685Z,99439.22
2024-05-09T00:16:44.020Z,99442.84
2024-05-09T00:19:48.348Z,99444.00
2024-05-09T00:22:52.722Z,99433.66
2024-05-09T00:25:57.248Z,99425.31
2024-05-09T00:29:04.146Z,99424.50
2024-05-09T00:32:09.890Z,99424.50
2024-05-09T00:35:14.348Z,99428.47
2024-05-09T00:38:18.865Z,99428.47
2024-05-09T00:41:23.175Z,99426.88
2024-05-09T00:44:30.092Z,99426.88
2024-05-09T00:47:34.744Z,99417.75
2024-05-09T00:50:41.692Z,99419.72
2024-05-09T00:53:46.592Z,99420.13
2024-05-09T00:56:52.288Z,99418.13
2024-05-09T00:59:59.338Z,99419.31
2024-05-09T01:03:03.802Z,99420.13
2024-05-09T01:06:08.408Z,99412.13
2024-05-09T01:09:12.776Z,99416.88
2024-05-09T01:12:17.259Z,99418.88
2024-05-09T01:15:24.155Z,99416.09
2024-05-09T01:18:28.744Z,99416.09
2024-05-09T01:21:33.146Z,99414.91
2024-05-09T01:24:40.037Z,99410.53
2024-05-09T01:27:44.306Z,99414.09
2024-05-09T01:30:48.644Z,99404.97
2024-05-09T01:33:52.985Z,99414.50
2024-05-09T01:36:57.292Z,99412.50
2024-05-09T01:40:07.332Z,99412.09
2024-05-09T01:43:13.725Z,99411.72
2024-05-09T01:46:19.399Z,99415.69
2024-05-09T01:49:23.922Z,99414.44
2024-05-09T01:52:28.347Z,99412.03
2024-05-09T01:55:35.249Z,99412.03
2024-05-09T01:58:39.562Z,99417.59
2024-05-09T02:01:56.349Z,99414.00
2024-05-09T02:05:02.155Z,99424.34
2024-05-09T02:08:07.213Z,99420.38
2024-05-09T02:11:14.387Z,99417.97
2024-05-09T02:14:20.674Z,99421.56
2024-05-09T02:17:25.140Z,99418.78
2024-05-09T02:20:35.824Z,99421.56
2024-05-09T02:23:41.188Z,99419.16
2024-05-09T02:26:48.052Z,99417.97
2024-05-09T02:29:52.352Z,99415.59
2024-05-09T02:32:56.695Z,99416.38
2024-05-09T02:36:01.054Z,99409.22
2024-05-09T02:39:02.781Z,99410.38
2024-05-09T02:42:09.717Z,99419.53
2024-05-09T02:45:11.554Z,99415.94
2024-05-09T02:48:15.976Z,99421.09
2024-05-09T02:51:17.827Z,99418.69
2024-05-09T02:54:22.114Z,99424.28
2024-05-09T02:57:26.350Z,99431.03
2024-05-09T03:00:38.114Z,99438.56
2024-05-09T03:03:48.339Z,99433.00
2024-05-09T03:06:50.194Z,99434.97
2024-05-09T03:09:54.438Z,99419.09
2024-05-09T03:13:01.467Z,99418.25
2024-05-09T03:16:03.319Z,99418.66
2024-05-09T03:19:07.761Z,99421.44
2024-05-09T03:22:09.517Z,99421.44
2024-05-09T03:25:13.775Z,99421.44
2024-05-09T03:28:20.639Z,99427.00
2024-05-09T03:31:22.310Z,99427.00
2024-05-09T03:34:26.744Z,99432.19
2024-05-09T03:37:30.988Z,99421.50
2024-05-09T03:40:35.264Z,99416.94
2024-05-09T03:43:42.148Z,99421.50
2024-05-09T03:46:46.476Z,99418.88
2024-05-09T03:49:48.201Z,99417.38
2024-05-09T03:52:52.539Z,99414.31
2024-05-09T03:55:54.313Z,99419.16
2024-05-09T03:59:01.486Z,99416.81
2024-05-09T04:02:05.483Z,99408.06
2024-05-09T04:05:09.876Z,99417.59
2024-05-09T04:08:11.820Z,99427.97
2024-05-09T04:11:16.315Z,99428.75
2024-05-09T04:14:20.677Z,99423.56
2024-05-09T04:17:25.072Z,99424.78
2024-05-09T04:23:34.369Z,99428.31
2024-05-09T04:26:38.809Z,99425.50
2024-05-09T04:29:43.099Z,99419.13
2024-05-09T04:32:47.527Z,99417.50
2024-05-09T04:35:52.020Z,99423.47
2024-05-09T04:38:53.696Z,99429.09
2024-05-09T04:41:58.192Z,99423.22
2024-05-09T04:45:02.490Z,99420.47
2024-05-09T04:48:07.611Z,99424.09
2024-05-09T04:51:09.409Z,99424.50
2024-05-09T04:54:25.741Z,99434.47
2024-05-09T04:57:34.630Z,99435.66
2024-05-09T05:00:40.293Z,99433.25
2024-05-09T05:03:45.454Z,99446.41
2024-05-09T05:06:47.233Z,99443.63
2024-05-09T05:09:51.551Z,99433.22
2024-05-09T05:13:11.957Z,99436.00
2024-05-09T05:16:18.956Z,99440.75
2024-05-09T05:19:20.793Z,99445.91
2024-05-09T05:22:25.137Z,99447.16
2024-05-09T05:25:26.876Z,99447.19
2024-05-09T05:28:31.186Z,99442.50
2024-05-09T05:31:35.546Z,99442.16
2024-05-09T05:34:39.828Z,99455.34
2024-05-09T05:37:44.171Z,99449.41
2024-05-09T05:40:47.011Z,99450.59
2024-05-09T05:43:51.321Z,99452.59
2024-05-09T05:46:55.670Z,99455.38
2024-05-09T05:49:59.976Z,99449.03
2024-05-09T05:53:01.775Z,99452.19
2024-05-09T05:56:07.456Z,99454.56
2024-05-09T05:59:09.613Z,99455.34
2024-05-09T06:02:17.241Z,99456.91
2024-05-09T06:05:19.045Z,99458.50
2024-05-09T06:08:24.704Z,99468.06
2024-05-09T06:11:27.421Z,99459.66
2024-05-09T06:14:31.792Z,99464.84
2024-05-09T06:17:36.369Z,99467.19
2024-05-09T06:20:42.243Z,99464.81
2024-05-09T06:23:45.928Z,99463.59
2024-05-09T06:26:50.304Z,99463.97
2024-05-09T06:29:52.005Z,99459.59
2024-05-09T06:32:59.082Z,99455.22
2024-05-09T06:36:01.126Z,99454.00
2024-05-09T06:39:05.434Z,99460.38
2024-05-09T06:42:09.681Z,99454.38
2024-05-09T06:45:11.395Z,99466.72
2024-05-09T06:48:20.744Z,99460.75
2024-05-09T06:51:23.046Z,99461.13
2024-05-09T06:54:27.410Z,99461.50
2024-05-09T06:57:30.860Z,99471.84
2024-05-09T07:00:39.406Z,99462.69
2024-05-09T07:03:45.751Z,99472.25
2024-05-09T07:06:50.116Z,99468.66
2024-05-09T07:09:51.835Z,99461.09
2024-05-09T07:12:56.112Z,99459.09
2024-05-09T07:15:57.807Z,99463.03
2024-05-09T07:19:04.896Z,99455.06
2024-05-09T07:22:09.332Z,99455.06
2024-05-09T07:25:10.983Z,99446.72
2024-05-09T07:28:16.736Z,99457.06
2024-05-09T07:31:18.607Z,99448.72
2024-05-09T07:34:25.594Z,99449.91
2024-05-09T07:37:29.989Z,99452.69
2024-05-09T07:40:36.992Z,99449.09
2024-05-09T07:43:38.953Z,99447.91
2024-05-09T07:51:32.772Z,99444.72
2024-05-09T07:53:37.859Z,99444.72
2024-05-09T07:56:40.594Z,99439.94
2024-05-09T07:59:42.339Z,99432.78
2024-05-09T08:02:46.643Z,99431.59
2024-05-09T08:05:51.672Z,99427.19
2024-05-09T08:08:57.868Z,99428.78
2024-05-09T08:12:03.440Z,99430.38
2024-05-09T08:15:06.130Z,99428.78
2024-05-09T08:18:11.328Z,99422.41
2024-05-09T08:21:19.266Z,99422.41
2024-05-09T08:24:20.962Z,99421.22
2024-05-09T08:27:27.135Z,99413.25
2024-05-09T08:30:34.131Z,99408.50
2024-05-09T08:33:46.601Z,99414.47
2024-05-09T08:36:51.359Z,99412.06
2024-05-09T08:39:55.754Z,99412.88
2024-05-09T08:42:57.751Z,99403.72
2024-05-09T08:46:02.940Z,99412.47
2024-05-09T08:49:04.938Z,99410.88
2024-05-09T08:52:12.370Z,99416.84
2024-05-09T08:55:14.638Z,99406.09
2024-05-09T08:58:20.763Z,99404.13
2024-05-09T09:01:22.898Z,99409.69
2024-05-09T09:04:27.584Z,99400.94
2024-05-09T09:07:33.423Z,99405.72
2024-05-09T09:10:37.900Z,99413.28
2024-05-09T09:13:39.674Z,99406.50
2024-05-09T09:16:45.939Z,99400.13
2024-05-09T09:19:47.672Z,99395.34
2024-05-09T09:22:54.590Z,99398.16
2024-05-09T09:25:58.507Z,99395.34
2024-05-09T09:29:03.348Z,99395.34
2024-05-09T09:32:06.726Z,99395.00
2024-05-09T09:35:11.022Z,99391.41
2024-05-09T09:38:18.385Z,99389.41
2024-05-09T09:41:26.079Z,99396.97
2024-05-09T09:44:28.251Z,99395.00
2024-05-09T09:47:33.628Z,99389.41
2024-05-09T09:50:35.931Z,99388.22
2024-05-09T09:53:43.401Z,99390.63
2024-05-09T09:56:48.685Z,99377.06
2024-05-09T09:59:50.637Z,99389.47
2024-05-09T10:02:54.968Z,99383.88
2024-05-09T10:05:57.324Z,99379.50
2024-05-09T10:09:04.278Z,99377.09
2024-05-09T10:12:09.981Z,99371.13
2024-05-09T10:15:14.621Z,99368.34
2024-05-09T10:18:22.722Z,99366.75
2024-05-09T10:21:24.510Z,99368.34
2024-05-09T10:24:31.426Z,99372.72
2024-05-09T10:27:33.364Z,99364.38
2024-05-09T10:30:38.503Z,99370.34
2024-05-09T10:33:45.851Z,99365.16
2024-05-09T10:36:55.668Z,99356.44
2024-05-09T10:40:01.184Z,99351.28
2024-05-09T10:43:06.555Z,99358.47
2024-05-09T10:46:09.383Z,99355.66
2024-05-09T10:49:15.631Z,99360.06
2024-05-09T10:52:20.247Z,99356.47
2024-05-09T10:55:27.488Z,99356.06
2024-05-09T10:58:31.807Z,99348.91
2024-05-09T11:01:36.262Z,99353.69
2024-05-09T11:04:41.843Z,99348.06
2024-05-09T11:07:43.680Z,99342.50
2024-05-09T11:10:52.132Z,99330.13
2024-05-09T11:13:53.952Z,99332.91
2024-05-09T11:17:02.000Z,99330.53
2024-05-09T11:20:13.626Z,99325.75
2024-05-09T11:23:22.147Z,99330.13
2024-05-09T11:26:29.338Z,99332.94
2024-05-09T11:29:40.942Z,99328.16
2024-05-09T11:32:45.507Z,99322.97
2024-05-09T11:35:47.351Z,99328.56
2024-05-09T11:38:51.691Z,99324.56
2024-05-09T11:41:56.435Z,99329.34
2024-05-09T11:45:00.740Z,99322.97
2024-05-09T11:48:03.629Z,99312.22
2024-05-09T11:51:08.538Z,99308.66
2024-05-09T11:54:12.810Z,99307.84
2024-05-09T11:57:17.065Z,99309.47
2024-05-09T12:00:29.487Z,99296.75
2024-05-09T12:03:40.763Z,99299.13
2024-05-09T12:06:46.261Z,99299.13
2024-05-09T12:09:50.723Z,99288.38
2024-05-09T12:12:55.110Z,99293.53
2024-05-09T12:15:59.488Z,99290.75
2024-05-09T12:19:01.518Z,99283.97
2024-05-09T12:22:07.086Z,99279.22
2024-05-09T12:25:08.947Z,99272.81
2024-05-09T12:28:17.330Z,99269.66
2024-05-09T12:31:21.793Z,99267.25
2024-05-09T12:34:23.595Z,99278.41
2024-05-09T12:37:27.902Z,99271.22
2024-05-09T12:40:36.475Z,99264.44
2024-05-09T12:43:45.334Z,99273.66
2024-05-09T12:46:47.070Z,99267.25
2024-05-09T12:49:51.415Z,99267.25
2024-05-09T12:52:53.185Z,99262.50
2024-05-09T12:56:01.835Z,99261.66
2024-05-09T12:59:10.109Z,99262.09
2024-05-09T13:02:12.394Z,99263.28
2024-05-09T13:05:17.249Z,99257.31
2024-05-09T13:08:22.537Z,99254.50
2024-05-09T13:11:26.857Z,99244.59
2024-05-09T13:14:31.321Z,99242.59
2024-05-09T13:17:35.687Z,99245.00
2024-05-09T13:20:37.503Z,99239.41
2024-05-09T13:23:41.902Z,99234.66
2024-05-09T13:26:43.655Z,99230.25
2024-05-09T13:29:50.543Z,99225.50
2024-05-09T13:32:55.874Z,99225.09
2024-05-09T13:35:57.995Z,99228.69
2024-05-09T13:39:02.302Z,99219.53
2024-05-09T13:42:07.072Z,99217.13
2024-05-09T13:45:11.380Z,99221.50
2024-05-09T13:48:17.089Z,99213.09
2024-05-09T13:51:18.851Z,99205.94
2024-05-09T13:54:23.108Z,99203.56
2024-05-09T13:57:27.535Z,99194.41
2024-05-09T14:00:44.268Z,99197.19
2024-05-09T14:03:52.674Z,99194.81
2024-05-09T14:06:57.142Z,99196.41
2024-05-09T14:09:59.037Z,99190.81
2024-05-09T14:13:03.479Z,99186.47
2024-05-09T14:16:08.749Z,99186.47
2024-05-09T14:19:13.125Z,99175.72
2024-05-09T14:22:14.875Z,99177.72
2024-05-09T14:25:19.398Z,99178.13
2024-05-09T14:28:28.562Z,99164.97
2024-05-09T14:31:34.837Z,99155.81
2024-05-09T14:34:40.621Z,99160.19
2024-05-09T14:37:45.038Z,99168.94
2024-05-09T14:40:47.058Z,99158.97
2024-05-09T14:43:51.397Z,99159.78
2024-05-09T14:46:55.868Z,99151.81
2024-05-09T14:50:00.190Z,99148.22
2024-05-09T14:53:02.114Z,99146.22
2024-05-09T14:56:07.064Z,99151.41
2024-05-09T14:59:09.156Z,99140.22
2024-05-09T15:02:16.316Z,99137.44
2024-05-09T15:05:18.289Z,99141.44
2024-05-09T15:08:23.159Z,99142.66
2024-05-09T15:11:24.886Z,99136.66
2024-05-09T15:14:29.210Z,99135.88
2024-05-09T15:17:34.508Z,99133.06
2024-05-09T15:20:40.364Z,99127.88
2024-05-09T15:23:42.536Z,99131.09
2024-05-09T15:26:46.805Z,99131.06
2024-05-09T15:29:51.149Z,99133.84
2024-05-09T15:32:55.511Z,99123.91
2024-05-09T15:35:59.816Z,99126.28
2024-05-09T15:39:05.362Z,99122.28
2024-05-09T15:42:07.059Z,99113.50
2024-05-09T15:45:11.295Z,99115.91
2024-05-09T15:48:15.623Z,99114.69
2024-05-09T15:51:19.987Z,99105.50
2024-05-09T15:54:25.461Z,99105.91
2024-05-09T15:57:27.325Z,99103.91
2024-05-09T16:03:41.827Z,99104.31
2024-05-09T16:06:47.969Z,99105.09
2024-05-09T16:09:49.648Z,99106.34
2024-05-09T16:12:53.953Z,99102.72
2024-05-09T16:15:58.364Z,99107.91
2024-05-09T16:19:02.774Z,99105.50
2024-05-09T16:22:07.345Z,99099.13
2024-05-09T16:25:09.438Z,99096.72
2024-05-09T16:28:14.164Z,99095.94
2024-05-09T16:31:18.635Z,99095.91
2024-05-09T16:34:22.989Z,99097.13
2024-05-09T16:37:29.579Z,99097.50
2024-05-09T16:40:37.957Z,99093.13
2024-05-09T16:43:44.788Z,99086.34
2024-05-09T16:46:46.607Z,99096.34
2024-05-09T16:49:53.477Z,99084.00
2024-05-09T16:52:55.152Z,99100.72
2024-05-09T16:55:59.458Z,99084.34
2024-05-09T16:59:01.221Z,99083.19
2024-05-09T17:02:05.802Z,99086.34
2024-05-09T17:05:10.817Z,99084.34
2024-05-09T17:08:15.346Z,99089.16
2024-05-09T17:11:19.647Z,99085.19
2024-05-09T17:14:23.976Z,99090.38
2024-05-09T17:17:28.373Z,99084.41
2024-05-09T17:20:37.229Z,99080.03
2024-05-09T17:23:39.517Z,99078.84
2024-05-09T17:26:43.800Z,99080.47
2024-05-09T17:29:45.712Z,99088.84
2024-05-09T17:32:50.021Z,99082.88
2024-05-09T17:35:56.924Z,99087.59
2024-05-09T17:38:58.676Z,99088.41
2024-05-09T17:42:02.906Z,99089.63
2024-05-09T17:45:07.767Z,99090.41
2024-05-09T17:48:11.035Z,99082.84
2024-05-09T17:51:18.939Z,99080.44
2024-05-09T17:54:20.674Z,99082.47
2024-05-09T17:57:25.086Z,99086.44
2024-05-09T18:03:34.309Z,99092.38
2024-05-09T18:06:41.450Z,99097.56
2024-05-09T18:09:43.195Z,99095.97
2024-05-09T18:12:47.805Z,99095.97
2024-05-09T18:15:49.651Z,99092.78
2024-05-09T18:18:54.240Z,99102.72
2024-05-09T18:22:01.217Z,99090.38
2024-05-09T18:25:03.269Z,99098.75
2024-05-09T18:28:09.006Z,99091.97
2024-05-09T18:31:13.426Z,99101.53
2024-05-09T18:34:15.319Z,99098.34
2024-05-09T18:37:22.311Z,99109.06
2024-05-09T18:40:31.355Z,99104.34
2024-05-09T18:43:44.982Z,99107.50
2024-05-09T18:46:50.340Z,99103.13
2024-05-09T18:49:54.873Z,99108.28
2024-05-09T18:52:59.164Z,99116.66
2024-05-09T18:56:03.433Z,99113.44
2024-05-09T18:59:05.605Z,99115.84
2024-05-09T19:02:10.032Z,99124.19
2024-05-09T19:05:14.619Z,99127.78
2024-05-09T19:08:18.967Z,99132.16
2024-05-09T19:11:23.252Z,99129.38
2024-05-09T19:14:27.656Z,99130.16
2024-05-09T19:17:32.037Z,99130.94
2024-05-09T19:20:35.731Z,99131.69
2024-05-09T19:23:50.438Z,99148.00
2024-05-09T19:26:53.795Z,99150.38
2024-05-09T19:29:58.100Z,99142.81
2024-05-09T19:33:02.553Z,99145.19
2024-05-09T19:36:05.158Z,99153.91
2024-05-09T19:39:12.154Z,99149.91
2024-05-09T19:42:13.838Z,99151.09
2024-05-09T19:45:18.467Z,99157.03
2024-05-09T19:48:21.676Z,99155.06
2024-05-09T19:51:25.949Z,99157.41
2024-05-09T19:54:30.342Z,99160.19
2024-05-09T19:57:34.619Z,99161.00
2024-05-09T20:00:39.908Z,99159.78
2024-05-09T20:03:46.732Z,99158.19
2024-05-09T20:06:48.572Z,99160.97
2024-05-09T20:09:55.518Z,99160.16
2024-05-09T20:12:57.496Z,99154.59
2024-05-09T20:16:02.615Z,99156.16
2024-05-09T20:19:04.731Z,99152.56
2024-05-09T20:22:09.237Z,99160.13
2024-05-09T20:25:13.825Z,99157.34
2024-05-09T20:28:18.282Z,99160.94
2024-05-09T20:31:21.508Z,99160.13
2024-05-09T20:34:25.988Z,99154.13
2024-05-09T20:37:27.791Z,99161.69
2024-05-09T20:40:37.984Z,99159.31
2024-05-09T20:43:41.103Z,99159.31
2024-05-09T20:46:45.337Z,99163.28
2024-05-09T20:49:47.178Z,99163.66
2024-05-09T20:52:51.537Z,99160.06
2024-05-09T20:55:57.241Z,99164.84
2024-05-09T20:59:01.558Z,99164.84
2024-05-09T21:02:03.407Z,99159.66
2024-05-09T21:05:08.138Z,99154.50
2024-05-09T21:08:10.162Z,99158.06
2024-05-09T21:11:17.351Z,99148.13
2024-05-09T21:14:21.828Z,99152.91
2024-05-09T21:17:23.577Z,99158.03
2024-05-09T21:20:31.744Z,99155.66
2024-05-09T21:23:34.749Z,99155.25
2024-05-09T21:26:41.652Z,99152.88
2024-05-09T21:29:43.310Z,99162.00
2024-05-09T21:32:47.691Z,99158.84
2024-05-09T21:35:49.480Z,99159.63
2024-05-09T21:38:53.764Z,99155.25
2024-05-09T21:42:01.729Z,99150.09
2024-05-09T21:45:06.465Z,99154.47
2024-05-09T21:48:11.294Z,99147.31
2024-05-09T21:51:16.063Z,99145.72
2024-05-09T21:54:17.762Z,99149.69
2024-05-09T21:57:24.624Z,99141.34
2024-05-09T22:00:34.531Z,99144.47
2024-05-09T22:03:41.829Z,99144.91
2024-05-09T22:06:43.630Z,99143.31
2024-05-09T22:09:47.968Z,99150.88
2024-05-09T22:12:52.298Z,99141.69
2024-05-09T22:15:56.675Z,99138.91
2024-05-09T22:19:01.085Z,99140.06
2024-05-09T22:22:03.086Z,99142.53
2024-05-09T22:25:08.277Z,99146.44
2024-05-09T22:28:13.465Z,99149.63
2024-05-09T22:31:18.460Z,99138.09
2024-05-09T22:34:20.320Z,99145.63
2024-05-09T22:37:24.630Z,99143.22
2024-05-09T22:40:38.132Z,99148.41
2024-05-09T22:43:53.122Z,99153.56
2024-05-09T22:46:54.863Z,99153.94
2024-05-09T22:49:59.144Z,99151.56
2024-05-09T22:53:00.990Z,99159.13
2024-05-09T22:56:05.360Z,99156.34
2024-05-09T22:59:09.760Z,99158.31
2024-05-09T23:02:14.277Z,99157.53
2024-05-09T23:05:16.156Z,99149.19
2024-05-09T23:08:20.519Z,99157.91
2024-05-09T23:11:22.228Z,99150.38
2024-05-09T23:14:29.121Z,99145.59
2024-05-09T23:17:31.020Z,99149.19
2024-05-09T23:20:38.788Z,99147.19
2024-05-09T23:23:44.983Z,99150.38
2024-05-09T23:26:49.273Z,99157.91
2024-05-09T23:29:53.610Z,99150.38
2024-05-09T23:32:57.990Z,99154.34
2024-05-09T23:35:59.756Z,99150.38
2024-05-09T23:39:04.141Z,99151.56
2024-05-09T23:42:05.887Z,99158.72
2024-05-09T23:45:13.168Z,99149.56
2024-05-09T23:48:15.004Z,99153.16
2024-05-09T23:51:19.810Z,99143.22
2024-05-09T23:54:24.056Z,99139.25
2024-05-09T23:57:25.767Z,99136.47
